x

Boston 16 Nm East Of Boston, Ma (44013) Wave Buoy

12:50 - Wed 6th May 2015 All times are EDT. -4 hours from GMT.

  • Sig Wave height 1.6ft
  • Swell Direction
  • Peak Period 11s
  • Average Period 5s
  • Wind
    2mph, 4mph gusts
  • Sea Temp 47°f
  • Aire Temp 50°f
  • Sea Pressure 1023.7mb
  • Boston 16 Nm East Of Boston, Ma
  • Boston 16 Nm East Of Boston, Ma

More Historic Weather Station data

Upgrade to MSW Pro to gain access to the past 30 days of data for over 8000 Wavebouys and Weather Stations around the globe.

Join Pro

Comparision Forecast

View Surf forecast
   
mié 05/06 12:50 1.6ft 11s 5s 2 4 mph 1023.7mb 47f 50f
mar 05/05 11:50 1.6ft 6s 5s 9 11 mph 1023.4mb 47f 50f
10:50 1.6ft 10s 5s 9 11 mph 1023.3mb 47f 51f
9:50 1.6ft 9s 6s 11 13 mph 1023.1mb 48f 51f
8:50 1.6ft 10s 6s 13 16 mph 1022.5mb 48f 53f
7:50 1.3ft 10s 7s 11 13 mph 1022.6mb 49f 53f
6:50 1.3ft 10s 7s 7 9 mph 1021.9mb 49f 51f
5:50 1.3ft 10s 6s 11 13 mph 1021.1mb 49f 54f
4:50 1.3ft 11s 7s 13 16 mph 1021.3mb 49f 53f
3:50 1.3ft 11s 7s 11 13 mph 1021.7mb 49f 55f
2:50 1.3ft 11s 7s 11
mph
1022mb 49f 55f
1:50 1.3ft 11s 6s 9
mph
1022.4mb 48f 55f
12:50 1.6ft 11s 6s 7
mph
1022.8mb 47f 55f
11:50 1.6ft 11s 6s 9 11 mph 1023.2mb 47f 54f
10:50 2ft 11s 6s 4
mph
1022.7mb 47f 54f
9:50 2ft 11s 6s 2 4 mph 1022.5mb 46f 53f
8:50 2ft 9s 5s 9
mph
1022.3mb 46f 53f
7:50 2ft 10s 5s 9
mph
1021.3mb 46f 53f
6:50 2ft 7s 4s 11
mph
1020.3mb 46f 54f
5:50 2ft 11s 4s 13 16 mph 1019.3mb 46f 55f
4:50 2.5ft 11s 4s 16
mph
1018.8mb 46f 56f
3:50 2.5ft 11s 4s 16 18 mph 1018.4mb 46f 57f
2:50 2.5ft 4s 4s 13 16 mph 1018.4mb 46f 56f
1:50 3ft 4s 4s 18 20 mph 1018.1mb 46f 57f
12:50 3ft 4s 4s 18 22 mph 1018.1mb 47f 58f
lun 05/04 11:50 3ft 4s 4s 18 20 mph 1018.4mb 47f 58f
10:50 3ft 3s 4s 18 20 mph 1018.8mb 47f 59f
9:50 2.5ft 11s 4s 18 20 mph 1019.4mb 47f 59f
8:50 2.5ft 7s 4s 16 18 mph 1019.5mb 47f 59f
7:50 3ft 8s 4s 16 18 mph 1019mb 47f 59f
6:50 2.5ft 10s 4s 18 20 mph 1018.6mb 47f 62f
5:50 2.5ft 11s 4s 16 20 mph 1018.6mb 47f 59f
4:50 2.5ft 4s 4s 18 22 mph 1018.7mb 48f 58f
3:50 2.5ft 10s 4s 20 22 mph 1019mb 48f 58f
2:50 2ft 8s 4s 18
mph
1019.6mb 48f 57f
1:50 1.6ft 11s 5s 16 18 mph 1020.1mb 49f 56f
12:50 2ft 10s 5s 11 13 mph 1020.9mb 49f 54f
11:50 2ft 9s 6s 7
mph
1021.8mb 49f 54f
10:50 2ft 11s 6s 4
mph
1022.5mb 48f 55f
9:50 2ft 8s 5s 2 4 mph 1022.4mb 47f 51f
8:50 2.5ft 11s 6s 7
mph
1022.6mb 46f 50f
7:50 2.5ft 11s 6s 9
mph
1022.7mb 46f 49f
6:50 2.5ft 8s 5s 9 11 mph 1022.5mb 46f 49f
5:50 2ft 8s 5s 9 11 mph 1021.8mb 46f 48f
4:50 2.5ft 11s 5s 9 11 mph 1021.4mb 46f 48f
3:50 2.5ft 11s 5s 9 11 mph 1021.3mb 46f 49f
2:50 2.5ft 11s 5s 7 9 mph 1021.3mb 46f 49f
1:50 2.5ft 9s 5s 11
mph
1021mb 47f 49f
12:50 2.5ft 11s 5s 9 11 mph 1021mb 47f 49f
dom 05/03 11:50 2.5ft 12s 5s 11
mph
1020.7mb 47f 49f
10:50 2.5ft 11s 5s 13
mph
1020.5mb 47f 49f
9:50 2.5ft 8s  -  9 11 mph 1020.5mb 46f 50f
8:50 3ft 7s 5s 9 11 mph 1020.1mb 46f 50f
7:50 2.5ft 10s 5s 11 13 mph 1019.4mb 46f 51f
6:50 3ft 8s 5s 11 13 mph 1018.9mb 46f 51f
5:50 3ft 8s 4s 18 20 mph 1018.2mb 47f 51f
4:50 3ft 10s 4s 18 22 mph 1017.8mb 47f 53f
3:50 3ft 10s 4s 18 20 mph 1017.9mb 47f 52f
2:50 2.5ft 8s 4s 18 20 mph 1018.2mb 47f 50f
1:50 2.5ft 7s 5s 16 18 mph 1018.4mb 47f 49f
12:50 2.5ft 7s 6s 13 16 mph 1018.4mb 47f 49f
11:50 2.5ft 8s 6s 9 11 mph 1018.8mb 47f 48f
10:50 2.5ft 8s 6s 11 13 mph 1018.5mb 46f 47f
9:50 2.5ft 9s 6s 9
mph
1018.5mb 46f 47f
8:50 2.5ft 9s 7s 4 7 mph 1018.4mb 46f 46f
7:50 2.5ft 8s 6s 9
mph
1018mb 46f 46f
6:50 2.5ft 8s 6s 9 11 mph 1017.6mb 46f 45f
5:50 2.5ft 9s 6s 13 16 mph 1016.7mb 46f 45f
4:50 2.5ft 11s 6s 9 11 mph 1016.9mb 46f 45f
3:50 2.5ft 11s 6s 9
mph
1016.7mb 45f 45f
2:50 2.5ft 11s 7s 9 11 mph 1016.5mb 46f 45f
1:50 2.5ft 12s 6s 9 11 mph 1016.5mb 46f 45f
12:50 2.5ft 9s 6s 9 11 mph 1016.5mb 46f 46f
sáb 05/02 11:50 3ft 7s 5s 7 9 mph 1016.4mb 46f 46f
10:50 3ft 9s 5s 11 13 mph 1016.3mb 46f 46f
9:50 3.5ft 8s 5s 13 16 mph 1016.2mb 47f 45f
8:50 3ft 8s 5s 13 16 mph 1015.9mb 47f 46f
7:50 3ft 10s 5s 13 16 mph 1015.1mb 47f 45f
6:50 3ft 10s 5s 13 16 mph 1015mb 47f 44f
5:50 2.5ft 9s 6s 13 16 mph 1015.1mb 47f 44f
4:50 2.5ft 9s 7s 11 13 mph 1015.2mb 47f 42f
3:50 2.5ft 10s 7s 11 13 mph 1015.5mb 47f 41f
2:50 3ft 8s 7s 9 11 mph 1016mb 47f 40f
1:50 2.5ft 7s 6s 9 11 mph 1016.5mb 46f 40f
12:50 3ft 7s 6s 9 13 mph 1016.6mb 46f 39f
11:50 3ft 7s 6s 4 7 mph 1017mb 46f 40f
10:50 3ft 7s 6s 2 4 mph 1017.1mb 46f 39f
9:50 3ft 7s 6s 2 4 mph 1016.9mb 45f 38f
8:50 3ft 7s 6s 2 4 mph 1017.2mb 45f 38f
7:50 3ft 7s 6s 4
mph
1017.2mb 45f 38f
6:50 2.5ft 7s 6s 2 7 mph 1016.8mb 45f 38f